createdAt,value
2019-03-04T00:00:18.016Z,99430.25
2019-03-04T00:03:03.539Z,99433.59
2019-03-04T00:05:34.295Z,99419.92
2019-03-04T00:08:05.055Z,99418.49
2019-03-04T00:10:35.773Z,99406.41
2019-03-04T00:13:06.506Z,99405.06
2019-03-04T00:15:45.061Z,99399.52
2019-03-04T00:18:15.877Z,99393.39
2019-03-04T00:20:47.579Z,99368.34
2019-03-04T00:23:19.270Z,99354.34
2019-03-04T00:25:51.809Z,99359.38
2019-03-04T00:28:22.370Z,99337.98
2019-03-04T00:31:11.004Z,99313.17
2019-03-04T00:33:59.650Z,99292.41
2019-03-04T00:36:30.407Z,99284.98
2019-03-04T00:39:09.172Z,99288.20
2019-03-04T00:41:52.334Z,99279.53
2019-03-04T00:44:32.137Z,99282.23
2019-03-04T00:47:02.800Z,99288.28
2019-03-04T00:49:33.450Z,99285.51
2019-03-04T00:52:08.655Z,99282.02
2019-03-04T00:54:39.264Z,99268.66
2019-03-04T00:57:20.984Z,99267.16
2019-03-04T00:59:51.578Z,99281.56
2019-03-04T01:02:23.228Z,99272.55
2019-03-04T01:04:57.716Z,99283.36
2019-03-04T01:07:41.239Z,99280.73
2019-03-04T01:10:12.660Z,99272.25
2019-03-04T01:12:43.369Z,99275.59
2019-03-04T01:15:22.390Z,99273.98
2019-03-04T01:17:52.850Z,99258.81
2019-03-04T01:20:27.090Z,99263.36
2019-03-04T01:22:57.803Z,99245.22
2019-03-04T01:25:30.379Z,99238.98
2019-03-04T01:28:01.093Z,99232.93
2019-03-04T01:30:32.800Z,99232.22
2019-03-04T01:33:09.248Z,99234.58
2019-03-04T01:35:39.978Z,99227.55
2019-03-04T01:38:11.634Z,99221.27
2019-03-04T01:40:42.298Z,99212.03
2019-03-04T01:43:13.925Z,99180.13
2019-03-04T01:45:44.559Z,99165.19
2019-03-04T01:48:15.158Z,99151.12
2019-03-04T01:50:53.503Z,99154.37
2019-03-04T01:53:24.132Z,99163.84
2019-03-04T01:56:01.392Z,99164.70
2019-03-04T01:58:32.112Z,99178.94
2019-03-04T02:01:08.515Z,99188.67
2019-03-04T02:03:39.186Z,99163.69
2019-03-04T02:06:09.853Z,99153.03
2019-03-04T02:08:41.607Z,99142.80
2019-03-04T02:11:12.415Z,99122.64
2019-03-04T02:13:43.043Z,99087.30
2019-03-04T02:16:13.750Z,99029.12
2019-03-04T02:18:45.406Z,99022.65
2019-03-04T02:21:16.029Z,99071.82
2019-03-04T02:23:46.677Z,99078.70
2019-03-04T02:26:23.610Z,99078.27
2019-03-04T02:28:54.212Z,99090.52
2019-03-04T02:31:24.871Z,99079.22
2019-03-04T02:33:55.452Z,99048.23
2019-03-04T02:36:26.106Z,99028.20
2019-03-04T02:38:56.678Z,99038.80
2019-03-04T02:41:27.322Z,99020.59
2019-03-04T02:43:57.945Z,99020.66
2019-03-04T02:46:30.530Z,99016.91
2019-03-04T02:49:01.156Z,99005.30
2019-03-04T02:51:35.073Z,98999.89
2019-03-04T02:54:05.896Z,98994.64
2019-03-04T02:56:44.555Z,98979.84
2019-03-04T02:59:15.056Z,98975.16
2019-03-04T03:01:45.675Z,98964.97
2019-03-04T03:04:16.247Z,98945.47
2019-03-04T03:06:49.177Z,98935.61
2019-03-04T03:09:19.769Z,98938.44
2019-03-04T03:11:50.298Z,98922.02
2019-03-04T03:14:20.987Z,98900.98
2019-03-04T03:16:51.644Z,98883.14
2019-03-04T03:19:22.276Z,98861.52
2019-03-04T03:21:53.014Z,98845.93
2019-03-04T03:24:23.629Z,98820.02
2019-03-04T03:26:54.260Z,98780.22
2019-03-04T03:29:25.012Z,98784.27
2019-03-04T03:31:55.582Z,98761.76
2019-03-04T03:34:26.274Z,98803.47
2019-03-04T03:36:56.806Z,98826.21
2019-03-04T03:39:27.504Z,98806.88
2019-03-04T03:42:02.567Z,98806.06
2019-03-04T03:44:33.274Z,98799.98
2019-03-04T03:47:07.401Z,98815.79
2019-03-04T03:49:39.063Z,98783.73
2019-03-04T03:52:09.732Z,98775.55
2019-03-04T03:54:42.377Z,98759.28
2019-03-04T03:57:24.581Z,98776.05
2019-03-04T03:59:55.306Z,98798.38
2019-03-04T04:02:25.941Z,98790.42
2019-03-04T04:04:56.537Z,98778.05
2019-03-04T04:07:33.322Z,98771.42
2019-03-04T04:10:10.851Z,98727.94
2019-03-04T04:12:41.556Z,98745.99
2019-03-04T04:15:14.956Z,98708.48
2019-03-04T04:17:49.600Z,98704.75
2019-03-04T04:20:20.289Z,98656.17
2019-03-04T04:22:50.870Z,98652.59
2019-03-04T04:25:33.550Z,98695.20
2019-03-04T04:28:11.374Z,98698.56
2019-03-04T04:30:41.994Z,98675.25
2019-03-04T04:33:12.552Z,98681.34
2019-03-04T04:35:43.192Z,98692.19
2019-03-04T04:38:19.360Z,98679.52
2019-03-04T04:41:08.601Z,98666.20
2019-03-04T04:43:39.325Z,98689.71
2019-03-04T04:46:10.048Z,98682.67
2019-03-04T04:48:42.897Z,98678.78
2019-03-04T04:51:14.578Z,98668.78
2019-03-04T04:53:45.254Z,98692.44
2019-03-04T04:56:16.495Z,98665.75
2019-03-04T04:58:47.225Z,98660.64
2019-03-04T05:01:17.852Z,98657.11
2019-03-04T05:03:48.583Z,98666.05
2019-03-04T05:06:19.217Z,98650.03
2019-03-04T05:08:53.903Z,98644.28
2019-03-04T05:11:25.608Z,98655.59
2019-03-04T05:13:56.224Z,98631.74
2019-03-04T05:16:26.888Z,98615.98
2019-03-04T05:18:57.450Z,98631.03
2019-03-04T05:21:32.452Z,98614.09
2019-03-04T05:24:03.125Z,98618.86
2019-03-04T05:26:33.795Z,98605.31
2019-03-04T05:29:04.412Z,98597.20
2019-03-04T05:31:35.141Z,98580.80
2019-03-04T05:34:05.786Z,98572.83
2019-03-04T05:36:36.404Z,98563.67
2019-03-04T05:39:07.752Z,98593.61
2019-03-04T05:41:45.284Z,98583.70
2019-03-04T05:44:34.584Z,98557.12
2019-03-04T05:47:06.196Z,98559.35
2019-03-04T05:49:36.859Z,98549.37
2019-03-04T05:52:07.596Z,98538.53
2019-03-04T05:54:40.476Z,98541.05
2019-03-04T05:57:11.494Z,98537.47
2019-03-04T05:59:42.204Z,98531.99
2019-03-04T06:02:12.913Z,98552.85
2019-03-04T06:04:45.722Z,98715.41
2019-03-04T06:07:17.967Z,98704.98
2019-03-04T06:09:49.455Z,98697.75
2019-03-04T06:12:20.098Z,98735.90
2019-03-04T06:14:50.793Z,98744.69
2019-03-04T06:17:23.410Z,98714.92
2019-03-04T06:19:54.007Z,98762.89
2019-03-04T06:22:24.709Z,98762.58
2019-03-04T06:24:55.303Z,98748.32
2019-03-04T06:27:25.959Z,98759.39
2019-03-04T06:29:57.562Z,98717.66
2019-03-04T06:32:30.500Z,98750.14
2019-03-04T06:35:01.087Z,98713.66
2019-03-04T06:37:31.723Z,98728.20
2019-03-04T06:40:10.440Z,98670.34
2019-03-04T06:42:41.149Z,98638.38
2019-03-04T06:45:13.558Z,98641.27
2019-03-04T06:47:44.261Z,98645.05
2019-03-04T06:50:53.215Z,98638.20
2019-03-04T06:53:48.484Z,98639.68
2019-03-04T06:56:29.498Z,98652.93
2019-03-04T06:59:08.279Z,98639.94
2019-03-04T07:01:48.484Z,98636.83
2019-03-04T07:04:34.207Z,98618.02
2019-03-04T07:07:05.383Z,98640.42
2019-03-04T07:09:48.085Z,98642.63
2019-03-04T07:12:19.779Z,98645.17
2019-03-04T07:15:06.175Z,98646.03
2019-03-04T07:17:37.838Z,98661.39
2019-03-04T07:20:11.241Z,98643.70
2019-03-04T07:22:41.822Z,98662.75
2019-03-04T07:25:18.985Z,98659.30
2019-03-04T07:28:05.744Z,98662.52
2019-03-04T07:30:37.526Z,98667.50
2019-03-04T07:33:08.211Z,98673.55
2019-03-04T07:35:45.332Z,98652.42
2019-03-04T07:38:53.172Z,98664.80
2019-03-04T07:41:23.887Z,98662.13
2019-03-04T07:43:54.581Z,98671.65
2019-03-04T07:46:25.250Z,98680.35
2019-03-04T07:48:56.965Z,98685.88
2019-03-04T07:51:53.858Z,98679.89
2019-03-04T07:54:24.480Z,98688.66
2019-03-04T07:56:55.147Z,98689.05
2019-03-04T07:59:25.836Z,98697.40
2019-03-04T08:01:56.526Z,98710.08
2019-03-04T08:04:32.046Z,98700.75
2019-03-04T08:07:35.394Z,98692.63
2019-03-04T08:10:58.372Z,98700.78
2019-03-04T08:13:41.547Z,98705.52
2019-03-04T08:16:16.318Z,98708.14
2019-03-04T08:18:47.015Z,98710.34
2019-03-04T08:21:27.337Z,98707.66
2019-03-04T08:23:57.968Z,98701.19
2019-03-04T08:26:28.593Z,98713.44
2019-03-04T08:28:59.300Z,98704.58
2019-03-04T08:31:30.018Z,98706.92
2019-03-04T08:34:17.968Z,98721.70
2019-03-04T08:36:48.636Z,98711.75
2019-03-04T08:39:19.264Z,98703.44
2019-03-04T08:41:49.823Z,98698.22
2019-03-04T08:44:21.528Z,98713.59
2019-03-04T08:46:52.264Z,98710.08
2019-03-04T08:49:22.846Z,98705.17
2019-03-04T08:51:53.425Z,98696.52
2019-03-04T08:54:24.071Z,98705.86
2019-03-04T08:57:03.615Z,98709.15
2019-03-04T08:59:27.093Z,98708.50
2019-03-04T09:01:57.794Z,98696.16
2019-03-04T09:04:34.903Z,98713.55
2019-03-04T09:07:05.637Z,98699.78
2019-03-04T09:09:36.396Z,98694.03
2019-03-04T09:12:07.016Z,98697.16
2019-03-04T09:14:37.685Z,98704.31
2019-03-04T09:17:13.450Z,98702.24
2019-03-04T09:19:49.787Z,98695.73
2019-03-04T09:22:20.572Z,98700.89
2019-03-04T09:24:51.305Z,98692.83
2019-03-04T09:27:27.881Z,98721.84
2019-03-04T09:29:58.559Z,98705.94
2019-03-04T09:32:30.143Z,98724.80
2019-03-04T09:35:00.833Z,98737.16
2019-03-04T09:37:31.509Z,98739.80
2019-03-04T09:40:12.732Z,98751.77
2019-03-04T09:42:43.488Z,98736.97
2019-03-04T09:45:14.438Z,98747.47
2019-03-04T09:47:48.463Z,98740.74
2019-03-04T09:50:21.364Z,98742.53
2019-03-04T09:52:52.528Z,98742.56
2019-03-04T09:55:35.137Z,98749.86
2019-03-04T09:58:05.756Z,98754.80
2019-03-04T10:01:16.605Z,98764.72
2019-03-04T10:04:15.165Z,98739.69
2019-03-04T10:07:19.067Z,98734.42
2019-03-04T10:10:37.017Z,98734.88
2019-03-04T10:14:09.895Z,98718.40
2019-03-04T10:17:08.163Z,98726.34
2019-03-04T10:19:48.898Z,98720.94
2019-03-04T10:22:40.054Z,98715.19
2019-03-04T10:25:35.740Z,98711.61
2019-03-04T10:28:27.011Z,98706.71
2019-03-04T10:31:23.223Z,98698.23
2019-03-04T10:34:32.010Z,98689.91
2019-03-04T10:37:46.540Z,98726.80
2019-03-04T10:41:13.156Z,98715.41
2019-03-04T10:44:37.923Z,98697.77
2019-03-04T10:47:16.047Z,98688.19
2019-03-04T10:49:54.677Z,98685.44
2019-03-04T10:52:25.302Z,98679.48
2019-03-04T10:54:55.924Z,98696.72
2019-03-04T10:57:42.784Z,98705.85
2019-03-04T11:00:16.139Z,98719.59
2019-03-04T11:02:46.751Z,98779.50
2019-03-04T11:05:33.056Z,98817.38
2019-03-04T11:08:04.741Z,98830.91
2019-03-04T11:10:36.373Z,98842.81
2019-03-04T11:13:09.041Z,98838.61
2019-03-04T11:15:39.669Z,98837.91
2019-03-04T11:18:16.483Z,98837.41
2019-03-04T11:20:47.200Z,98839.83
2019-03-04T11:23:17.950Z,98852.17
2019-03-04T11:25:56.332Z,98867.30
2019-03-04T11:28:27.113Z,98867.66
2019-03-04T11:30:57.753Z,98885.72
2019-03-04T11:33:40.622Z,98887.55
2019-03-04T11:36:16.546Z,98904.41
2019-03-04T11:38:55.411Z,98906.78
2019-03-04T11:41:26.070Z,98914.09
2019-03-04T11:43:56.751Z,98917.98
2019-03-04T11:46:29.484Z,98916.00
2019-03-04T11:49:00.175Z,98918.81
2019-03-04T11:51:30.901Z,98912.69
2019-03-04T11:54:03.624Z,98913.66
2019-03-04T11:56:34.257Z,98927.13
2019-03-04T11:59:05.144Z,98934.20
2019-03-04T12:01:37.461Z,98935.75
2019-03-04T12:04:08.054Z,98938.08
2019-03-04T12:06:44.658Z,98945.42
2019-03-04T12:09:16.045Z,98950.56
2019-03-04T12:11:46.751Z,98955.76
2019-03-04T12:14:18.369Z,98961.09
2019-03-04T12:16:49.112Z,98973.72
2019-03-04T12:19:28.763Z,98981.16
2019-03-04T12:22:00.945Z,98998.64
2019-03-04T12:24:31.753Z,99009.66
2019-03-04T12:27:02.535Z,99013.91
2019-03-04T12:29:39.139Z,99027.09
2019-03-04T12:32:17.985Z,99034.29
2019-03-04T12:34:48.723Z,99036.72
2019-03-04T12:37:30.352Z,99035.28
2019-03-04T12:40:25.079Z,99043.69
2019-03-04T12:42:58.964Z,99045.34
2019-03-04T12:45:34.468Z,99050.75
2019-03-04T12:48:03.077Z,99053.95
2019-03-04T12:50:33.864Z,99047.02
2019-03-04T12:53:04.650Z,99063.09
2019-03-04T12:55:35.284Z,99070.67
2019-03-04T12:58:05.955Z,99075.05
2019-03-04T13:00:51.751Z,99077.95
2019-03-04T13:03:28.287Z,99091.91
2019-03-04T13:06:01.036Z,99096.67
2019-03-04T13:08:31.695Z,99094.67
2019-03-04T13:11:02.392Z,99102.94
2019-03-04T13:13:32.957Z,99104.06
2019-03-04T13:16:03.810Z,99112.16
2019-03-04T13:18:34.707Z,99123.22
2019-03-04T13:21:05.414Z,99117.14
2019-03-04T13:23:38.105Z,99128.55
2019-03-04T13:26:09.820Z,99129.59
2019-03-04T13:28:51.385Z,99134.44
2019-03-04T13:31:24.081Z,99138.69
2019-03-04T13:33:54.783Z,99142.84
2019-03-04T13:36:25.472Z,99143.59
2019-03-04T13:38:57.068Z,99149.22
2019-03-04T13:41:27.712Z,99152.17
2019-03-04T13:43:58.328Z,99156.46
2019-03-04T13:46:29.096Z,99166.61
2019-03-04T13:48:59.671Z,99169.48
2019-03-04T13:51:30.508Z,99168.81
2019-03-04T13:54:02.216Z,99177.00
2019-03-04T13:56:33.948Z,99182.73
2019-03-04T13:59:04.668Z,99184.81
2019-03-04T14:01:44.870Z,99181.99
2019-03-04T14:04:33.800Z,99183.73
2019-03-04T14:07:22.506Z,99197.31
2019-03-04T14:09:55.231Z,99204.16
2019-03-04T14:12:26.191Z,99203.69
2019-03-04T14:14:56.776Z,99220.68
2019-03-04T14:17:29.568Z,99218.23
2019-03-04T14:20:00.276Z,99239.03
2019-03-04T14:22:57.299Z,99235.95
2019-03-04T14:25:26.299Z,99239.37
2019-03-04T14:27:58.130Z,99254.40
2019-03-04T14:30:28.781Z,99250.64
2019-03-04T14:32:59.474Z,99247.93
2019-03-04T14:35:31.124Z,99251.36
2019-03-04T14:38:01.886Z,99256.38
2019-03-04T14:40:32.605Z,99266.30
2019-03-04T14:43:03.338Z,99274.86
2019-03-04T14:45:37.922Z,99286.73
2019-03-04T14:48:09.642Z,99295.03
2019-03-04T14:50:42.398Z,99300.64
2019-03-04T14:53:13.038Z,99305.19
2019-03-04T14:55:51.249Z,99313.03
2019-03-04T14:58:21.970Z,99308.63
2019-03-04T15:00:54.666Z,99310.61
2019-03-04T15:03:39.748Z,99322.97
2019-03-04T15:06:10.459Z,99330.91
2019-03-04T15:08:45.373Z,99335.70
2019-03-04T15:11:16.956Z,99339.50
2019-03-04T15:13:47.588Z,99340.47
2019-03-04T15:16:18.424Z,99353.31
2019-03-04T15:18:49.350Z,99355.89
2019-03-04T15:21:35.605Z,99350.11
2019-03-04T15:24:06.343Z,99366.19
2019-03-04T15:26:45.998Z,99371.45
2019-03-04T15:29:16.667Z,99372.54
2019-03-04T15:31:47.362Z,99385.27
2019-03-04T15:34:28.636Z,99386.99
2019-03-04T15:36:59.288Z,99385.63
2019-03-04T15:39:32.016Z,99391.37
2019-03-04T15:42:15.797Z,99404.61
2019-03-04T15:45:00.684Z,99417.09
2019-03-04T15:47:31.453Z,99408.16
2019-03-04T15:50:02.157Z,99421.97
2019-03-04T15:52:36.484Z,99428.70
2019-03-04T15:55:14.173Z,99435.53
2019-03-04T15:57:46.039Z,99441.42
2019-03-04T16:00:17.270Z,99443.83
2019-03-04T16:02:54.575Z,99452.98
2019-03-04T16:05:26.339Z,99459.92
2019-03-04T16:08:06.778Z,99464.02
2019-03-04T16:10:38.370Z,99460.56
2019-03-04T16:13:09.142Z,99457.02
2019-03-04T16:15:41.147Z,99456.88
2019-03-04T16:18:11.944Z,99466.77
2019-03-04T16:20:42.780Z,99470.54
2019-03-04T16:23:13.598Z,99467.70
2019-03-04T16:25:47.606Z,99472.75
2019-03-04T16:28:20.890Z,99468.71
2019-03-04T16:30:51.875Z,99480.17
2019-03-04T16:33:27.590Z,99485.54
2019-03-04T16:35:58.317Z,99479.23
2019-03-04T16:38:29.003Z,99492.00
2019-03-04T16:41:01.004Z,99500.94
2019-03-04T16:43:31.600Z,99505.67
2019-03-04T16:46:11.556Z,99510.66
2019-03-04T16:48:44.258Z,99510.16
2019-03-04T16:51:15.890Z,99521.57
2019-03-04T16:53:46.609Z,99534.34
2019-03-04T16:56:17.560Z,99531.13
2019-03-04T16:58:53.425Z,99532.21
2019-03-04T17:01:27.317Z,99546.59
2019-03-04T17:03:58.003Z,99546.45
2019-03-04T17:06:28.707Z,99543.37
2019-03-04T17:08:59.337Z,99553.98
2019-03-04T17:11:30.998Z,99553.77
2019-03-04T17:14:01.731Z,99561.73
2019-03-04T17:16:50.846Z,99558.22
2019-03-04T17:19:21.518Z,99564.78
2019-03-04T17:22:02.258Z,99567.69
2019-03-04T17:24:38.319Z,99570.91
2019-03-04T17:27:12.573Z,99575.84
2019-03-04T17:29:43.195Z,99589.37
2019-03-04T17:32:14.993Z,99588.39
2019-03-04T17:34:51.826Z,99594.59
2019-03-04T17:37:23.538Z,99601.76
2019-03-04T17:40:01.571Z,99613.10
2019-03-04T17:42:47.026Z,99621.13
2019-03-04T17:45:29.319Z,99621.80
2019-03-04T17:48:06.354Z,99626.66
2019-03-04T17:50:37.338Z,99629.66
2019-03-04T17:53:08.273Z,99628.39
2019-03-04T17:55:43.269Z,99632.70
2019-03-04T17:58:14.235Z,99639.69
2019-03-04T18:00:55.703Z,99635.63
2019-03-04T18:03:32.362Z,99645.70
2019-03-04T18:06:06.121Z,99651.44
2019-03-04T18:08:38.792Z,99660.83
2019-03-04T18:11:09.397Z,99656.59
2019-03-04T18:13:40.183Z,99662.39
2019-03-04T18:16:14.192Z,99650.02
2019-03-04T18:18:44.873Z,99665.86
2019-03-04T18:21:19.323Z,99668.33
2019-03-04T18:23:50.078Z,99673.02
2019-03-04T18:26:37.710Z,99669.16
2019-03-04T18:29:27.161Z,99663.14
2019-03-04T18:32:19.128Z,99660.00
2019-03-04T18:35:13.384Z,99665.80
2019-03-04T18:38:10.969Z,99666.56
2019-03-04T18:40:53.632Z,99674.75
2019-03-04T18:44:16.333Z,99675.84
2019-03-04T18:47:26.467Z,99673.81
2019-03-04T18:49:57.268Z,99672.09
2019-03-04T18:52:31.973Z,99671.70
2019-03-04T18:55:03.670Z,99677.66
2019-03-04T18:57:37.414Z,99676.68
2019-03-04T19:00:13.279Z,99685.28
2019-03-04T19:02:44.514Z,99678.24
2019-03-04T19:05:16.485Z,99683.38
2019-03-04T19:07:53.480Z,99679.00
2019-03-04T19:10:34.360Z,99689.46
2019-03-04T19:13:06.135Z,99695.36
2019-03-04T19:15:37.859Z,99681.87
2019-03-04T19:18:08.726Z,99693.42
2019-03-04T19:20:39.478Z,99693.19
2019-03-04T19:23:23.733Z,99700.34
2019-03-04T19:26:01.652Z,99693.16
2019-03-04T19:28:41.562Z,99694.25
2019-03-04T19:31:13.209Z,99693.27
2019-03-04T19:33:53.574Z,99694.03
2019-03-04T19:36:25.830Z,99690.52
2019-03-04T19:38:59.205Z,99689.29
2019-03-04T19:41:30.030Z,99693.39
2019-03-04T19:44:00.822Z,99697.41
2019-03-04T19:46:31.958Z,99695.87
2019-03-04T19:49:02.747Z,99696.70
2019-03-04T19:51:35.374Z,99691.34
2019-03-04T19:54:06.405Z,99701.72
2019-03-04T19:56:40.595Z,99701.55
2019-03-04T19:59:11.421Z,99697.42
2019-03-04T20:01:44.244Z,99687.66
2019-03-04T20:04:19.516Z,99691.22
2019-03-04T20:06:51.345Z,99703.77
2019-03-04T20:09:22.004Z,99702.83
2019-03-04T20:11:58.048Z,99704.16
2019-03-04T20:14:33.339Z,99715.95
2019-03-04T20:17:04.367Z,99711.08
2019-03-04T20:19:37.441Z,99705.25
2019-03-04T20:22:26.126Z,99705.72
2019-03-04T20:24:57.004Z,99711.19
2019-03-04T20:27:27.865Z,99710.89
2019-03-04T20:29:58.633Z,99708.51
2019-03-04T20:32:31.657Z,99708.80
2019-03-04T20:35:02.315Z,99712.61
2019-03-04T20:37:33.783Z,99710.42
2019-03-04T20:40:04.959Z,99713.30
2019-03-04T20:42:36.269Z,99714.92
2019-03-04T20:45:08.772Z,99716.74
2019-03-04T20:47:43.123Z,99716.34
2019-03-04T20:50:17.371Z,99711.34
2019-03-04T20:52:54.665Z,99715.38
2019-03-04T20:55:27.574Z,99725.74
2019-03-04T20:57:58.458Z,99726.22
2019-03-04T21:00:36.018Z,99738.19
2019-03-04T21:03:10.501Z,99741.34
2019-03-04T21:05:41.611Z,99757.94
2019-03-04T21:08:24.113Z,99780.14
2019-03-04T21:10:55.257Z,99800.14
2019-03-04T21:13:36.131Z,99800.46
2019-03-04T21:16:07.179Z,99824.34
2019-03-04T21:18:37.993Z,99807.42
2019-03-04T21:21:12.553Z,99803.63
2019-03-04T21:23:43.232Z,99797.77
2019-03-04T21:26:22.787Z,99793.39
2019-03-04T21:29:31.566Z,99792.19
2019-03-04T21:32:31.700Z,99795.80
2019-03-04T21:35:31.492Z,99810.39
2019-03-04T21:38:02.451Z,99804.67
2019-03-04T21:40:44.399Z,99807.80
2019-03-04T21:43:26.355Z,99818.77
2019-03-04T21:46:37.173Z,99825.52
2019-03-04T21:49:10.224Z,99821.61
2019-03-04T21:52:20.196Z,99823.36
2019-03-04T21:54:49.338Z,99822.53
2019-03-04T21:57:39.214Z,99833.47
2019-03-04T22:00:33.520Z,99832.41
2019-03-04T22:03:18.088Z,99833.76
2019-03-04T22:05:52.996Z,99843.28
2019-03-04T22:08:52.096Z,99837.37
2019-03-04T22:11:22.909Z,99842.47
2019-03-04T22:13:54.597Z,99850.55
2019-03-04T22:16:28.611Z,99843.10
2019-03-04T22:19:06.409Z,99848.09
2019-03-04T22:21:40.934Z,99837.58
2019-03-04T22:24:11.654Z,99860.05
2019-03-04T22:26:42.652Z,99849.08
2019-03-04T22:29:23.642Z,99851.39
2019-03-04T22:32:00.529Z,99853.41
2019-03-04T22:34:52.025Z,99856.75
2019-03-04T22:37:22.686Z,99854.07
2019-03-04T22:40:07.519Z,99869.73
2019-03-04T22:42:38.261Z,99865.52
2019-03-04T22:45:12.099Z,99871.08
2019-03-04T22:47:43.081Z,99870.36
2019-03-04T22:50:33.959Z,99874.78
2019-03-04T22:53:06.824Z,99879.27
2019-03-04T22:55:50.916Z,99882.00
2019-03-04T22:58:28.882Z,99875.72
2019-03-04T23:01:35.754Z,99890.25
2019-03-04T23:04:20.931Z,99883.75
2019-03-04T23:07:01.394Z,99877.94
2019-03-04T23:10:10.258Z,99888.55
2019-03-04T23:13:02.719Z,99881.89
2019-03-04T23:15:35.748Z,99889.31
2019-03-04T23:18:21.018Z,99886.64
2019-03-04T23:21:18.034Z,99902.47
2019-03-04T23:23:48.776Z,99899.78
2019-03-04T23:26:20.682Z,99887.02
2019-03-04T23:28:51.486Z,99892.34
2019-03-04T23:31:23.170Z,99895.60
2019-03-04T23:33:53.893Z,99906.37
2019-03-04T23:36:26.455Z,99891.98
2019-03-04T23:38:58.044Z,99908.84
2019-03-04T23:41:28.689Z,99900.91
2019-03-04T23:43:59.268Z,99910.02
2019-03-04T23:46:35.494Z,99904.66
2019-03-04T23:49:06.087Z,99905.09
2019-03-04T23:51:37.778Z,99916.42
2019-03-04T23:54:08.391Z,99903.22
2019-03-04T23:56:39.225Z,99903.69
2019-03-04T23:59:09.761Z,99911.16
